createdAt,value
2023-06-19T00:01:10.990Z,71.10
2023-06-19T00:03:40.567Z,71.10
2023-06-19T00:06:07.941Z,71.20
2023-06-19T00:08:35.580Z,71.20
2023-06-19T00:11:02.752Z,71.40
2023-06-19T00:13:29.970Z,71.30
2023-06-19T00:16:01.837Z,71.40
2023-06-19T00:18:29.620Z,71.40
2023-06-19T00:20:57.506Z,71.40
2023-06-19T00:23:24.787Z,71.50
2023-06-19T00:25:52.029Z,71.50
2023-06-19T00:28:21.231Z,71.60
2023-06-19T00:30:48.471Z,71.60
2023-06-19T00:33:18.184Z,71.60
2023-06-19T00:35:45.781Z,71.60
2023-06-19T00:38:13.352Z,71.60
2023-06-19T00:40:40.547Z,71.70
2023-06-19T00:43:09.784Z,71.80
2023-06-19T00:45:37.180Z,71.70
2023-06-19T00:48:05.474Z,71.70
2023-06-19T00:50:32.677Z,71.80
2023-06-19T00:53:00.895Z,71.80
2023-06-19T00:55:31.258Z,71.80
2023-06-19T00:57:59.162Z,71.80
2023-06-19T01:00:26.583Z,71.90
2023-06-19T01:02:56.992Z,71.90
2023-06-19T01:05:24.272Z,72.00
2023-06-19T01:08:00.320Z,72.00
2023-06-19T01:10:29.549Z,72.00
2023-06-19T01:13:00.021Z,72.00
2023-06-19T01:15:27.343Z,72.00
2023-06-19T01:17:56.088Z,72.00
2023-06-19T01:20:23.706Z,72.00
2023-06-19T01:22:51.023Z,72.00
2023-06-19T01:25:18.361Z,72.00
2023-06-19T01:27:46.096Z,72.00
2023-06-19T01:30:14.203Z,72.00
2023-06-19T01:32:44.580Z,72.00
2023-06-19T01:35:13.354Z,72.00
2023-06-19T01:37:41.787Z,72.00
2023-06-19T01:40:10.960Z,72.00
2023-06-19T01:42:41.860Z,72.00
2023-06-19T01:45:10.465Z,72.00
2023-06-19T01:47:37.745Z,72.00
2023-06-19T01:50:05.449Z,72.00
2023-06-19T01:52:32.695Z,71.90
2023-06-19T01:54:59.818Z,71.90
2023-06-19T01:57:27.470Z,71.90
2023-06-19T01:59:54.737Z,71.90
2023-06-19T02:02:22.932Z,71.90
2023-06-19T02:04:50.926Z,71.90
2023-06-19T02:07:18.073Z,71.90
2023-06-19T02:09:46.351Z,71.80
2023-06-19T02:12:13.556Z,71.90
2023-06-19T02:14:40.767Z,71.90
2023-06-19T02:17:08.018Z,71.90
2023-06-19T02:19:36.136Z,71.80
2023-06-19T02:22:03.327Z,71.80
2023-06-19T02:24:30.676Z,71.80
2023-06-19T02:26:58.226Z,71.80
2023-06-19T02:29:25.579Z,71.80
2023-06-19T02:31:53.190Z,71.80
2023-06-19T02:34:20.342Z,71.70
2023-06-19T02:36:48.531Z,71.70
2023-06-19T02:39:16.172Z,71.70
2023-06-19T02:41:48.092Z,71.70
2023-06-19T02:44:15.855Z,71.70
2023-06-19T02:46:44.716Z,71.70
2023-06-19T02:49:11.853Z,71.70
2023-06-19T02:51:42.133Z,71.60
2023-06-19T02:54:09.620Z,71.60
2023-06-19T02:56:36.960Z,71.60
2023-06-19T02:59:04.133Z,71.60
2023-06-19T03:01:31.479Z,71.60
2023-06-19T03:03:58.703Z,71.50
2023-06-19T03:06:27.213Z,71.50
2023-06-19T03:08:54.549Z,71.50
2023-06-19T03:11:22.269Z,71.50
2023-06-19T03:13:53.648Z,71.50
2023-06-19T03:16:21.341Z,71.40
2023-06-19T03:18:52.632Z,71.40
2023-06-19T03:21:23.235Z,71.30
2023-06-19T03:23:51.897Z,71.30
2023-06-19T03:26:21.645Z,71.30
2023-06-19T03:28:49.337Z,71.30
2023-06-19T03:31:16.798Z,71.30
2023-06-19T03:33:44.587Z,71.30
2023-06-19T03:36:11.958Z,71.20
2023-06-19T03:38:49.439Z,71.20
2023-06-19T03:41:20.498Z,71.20
2023-06-19T03:43:48.323Z,71.20
2023-06-19T03:46:16.222Z,71.10
2023-06-19T03:48:43.537Z,71.10
2023-06-19T03:51:10.742Z,71.10
2023-06-19T03:53:37.919Z,71.10
2023-06-19T03:56:05.121Z,71.00
2023-06-19T03:58:32.958Z,71.00
2023-06-19T04:01:00.162Z,71.10
2023-06-19T04:03:27.649Z,71.00
2023-06-19T04:05:55.002Z,71.00
2023-06-19T04:08:22.285Z,71.00
2023-06-19T04:10:49.512Z,71.00
2023-06-19T04:13:17.480Z,71.00
2023-06-19T04:15:46.952Z,71.00
2023-06-19T04:18:15.874Z,71.00
2023-06-19T04:20:43.148Z,70.90
2023-06-19T04:23:14.092Z,70.90
2023-06-19T04:25:41.650Z,71.00
2023-06-19T04:28:08.847Z,70.90
2023-06-19T04:30:36.003Z,70.90
2023-06-19T04:33:03.178Z,70.90
2023-06-19T04:35:30.346Z,70.90
2023-06-19T04:37:57.713Z,70.90
2023-06-19T04:40:26.881Z,70.90
2023-06-19T04:42:55.218Z,70.90
2023-06-19T04:45:22.392Z,71.00
2023-06-19T04:47:53.889Z,70.90
2023-06-19T04:50:22.631Z,70.90
2023-06-19T04:52:52.502Z,70.90
2023-06-19T04:55:20.156Z,70.90
2023-06-19T04:57:47.578Z,71.00
2023-06-19T05:00:16.450Z,71.00
2023-06-19T05:02:45.259Z,71.00
2023-06-19T05:05:12.664Z,71.00
2023-06-19T05:07:40.069Z,71.00
2023-06-19T05:10:07.875Z,71.00
2023-06-19T05:12:35.598Z,71.00
2023-06-19T05:15:03.631Z,71.10
2023-06-19T05:17:30.919Z,71.00
2023-06-19T05:19:58.244Z,71.10
2023-06-19T05:22:25.667Z,71.10
2023-06-19T05:24:52.990Z,71.10
2023-06-19T05:27:20.246Z,71.10
2023-06-19T05:29:47.457Z,71.10
2023-06-19T05:32:14.634Z,71.10
2023-06-19T05:34:41.797Z,71.10
2023-06-19T05:37:09.143Z,71.20
2023-06-19T05:39:36.303Z,71.20
2023-06-19T05:42:03.512Z,71.20
2023-06-19T05:44:30.660Z,71.30
2023-06-19T05:46:57.768Z,71.40
2023-06-19T05:49:24.859Z,71.40
2023-06-19T05:51:52.006Z,71.40
2023-06-19T05:54:19.201Z,71.40
2023-06-19T05:56:46.418Z,71.50
2023-06-19T05:59:15.689Z,71.50
2023-06-19T06:01:43.163Z,71.60
2023-06-19T06:04:10.610Z,71.60
2023-06-19T06:06:37.867Z,71.70
2023-06-19T06:09:05.351Z,71.70
2023-06-19T06:11:32.478Z,71.70
2023-06-19T06:13:59.664Z,71.70
2023-06-19T06:16:26.902Z,71.60
2023-06-19T06:18:54.133Z,71.60
2023-06-19T06:21:21.284Z,71.50
2023-06-19T06:23:49.092Z,71.50
2023-06-19T06:26:16.386Z,71.40
2023-06-19T06:28:43.643Z,71.40
2023-06-19T06:31:10.900Z,71.40
2023-06-19T06:33:38.037Z,71.40
2023-06-19T06:36:07.222Z,71.40
2023-06-19T06:38:35.936Z,71.50
2023-06-19T06:41:03.217Z,71.50
2023-06-19T06:43:30.413Z,71.60
2023-06-19T06:45:57.806Z,71.70
2023-06-19T06:48:25.070Z,71.60
2023-06-19T06:50:53.912Z,71.60
2023-06-19T06:53:21.219Z,71.60
2023-06-19T06:55:48.390Z,71.60
2023-06-19T06:58:15.768Z,71.60
2023-06-19T07:00:43.000Z,71.60
2023-06-19T07:03:10.705Z,71.50
2023-06-19T07:05:37.960Z,71.60
2023-06-19T07:08:05.149Z,71.60
2023-06-19T07:10:32.559Z,72.10
2023-06-19T07:12:59.668Z,71.60
2023-06-19T07:15:26.915Z,71.50
2023-06-19T07:17:54.148Z,71.50
2023-06-19T07:20:21.636Z,71.60
2023-06-19T07:22:51.422Z,71.60
2023-06-19T07:25:20.336Z,71.70
2023-06-19T07:27:47.539Z,71.80
2023-06-19T07:30:16.856Z,71.90
2023-06-19T07:32:47.886Z,71.90
2023-06-19T07:35:15.184Z,72.00
2023-06-19T07:37:42.434Z,72.40
2023-06-19T07:40:09.979Z,72.60
2023-06-19T07:42:37.185Z,72.50
2023-06-19T07:45:04.716Z,72.70
2023-06-19T07:47:31.910Z,72.70
2023-06-19T07:49:59.088Z,72.70
2023-06-19T07:52:26.405Z,72.60
2023-06-19T07:54:55.022Z,72.60
2023-06-19T07:57:22.724Z,72.50
2023-06-19T07:59:50.432Z,72.30
2023-06-19T08:02:17.897Z,72.30
2023-06-19T08:04:45.149Z,72.50
2023-06-19T08:07:12.515Z,72.40
2023-06-19T08:09:39.654Z,72.50
2023-06-19T08:12:07.009Z,72.70
2023-06-19T08:14:34.125Z,72.80
2023-06-19T08:17:01.393Z,72.90
2023-06-19T08:19:28.635Z,72.80
2023-06-19T08:21:55.755Z,73.10
2023-06-19T08:24:22.896Z,73.10
2023-06-19T08:26:52.414Z,73.20
2023-06-19T08:29:19.894Z,73.20
2023-06-19T08:31:47.212Z,73.40
2023-06-19T08:34:14.484Z,73.40
2023-06-19T08:36:42.014Z,73.60
2023-06-19T08:39:09.663Z,73.80
2023-06-19T08:41:40.026Z,73.80
2023-06-19T08:44:07.546Z,74.00
2023-06-19T08:46:35.793Z,73.90
2023-06-19T08:49:03.230Z,74.00
2023-06-19T08:51:31.729Z,74.00
2023-06-19T08:54:03.370Z,74.20
2023-06-19T08:56:35.192Z,74.40
2023-06-19T08:59:12.707Z,74.40
2023-06-19T09:01:41.281Z,74.60
2023-06-19T09:04:12.296Z,74.30
2023-06-19T09:06:49.290Z,74.40
2023-06-19T09:09:18.016Z,74.40
2023-06-19T09:11:57.289Z,74.40
2023-06-19T09:14:39.918Z,74.40
2023-06-19T09:17:11.928Z,74.40
2023-06-19T09:19:49.635Z,74.40
2023-06-19T09:22:20.730Z,74.70
2023-06-19T09:24:50.963Z,74.70
2023-06-19T09:27:20.720Z,74.80
2023-06-19T09:29:53.623Z,74.70
2023-06-19T09:32:24.990Z,74.70
2023-06-19T09:34:56.209Z,74.90
2023-06-19T09:37:28.552Z,75.00
2023-06-19T09:40:00.377Z,75.00
2023-06-19T09:42:30.163Z,75.10
2023-06-19T09:45:05.537Z,75.30
2023-06-19T09:47:53.142Z,75.40
2023-06-19T09:50:22.683Z,75.30
2023-06-19T09:52:52.583Z,75.20
2023-06-19T09:55:20.371Z,75.20
2023-06-19T09:57:48.589Z,75.10
2023-06-19T10:00:23.595Z,75.00
2023-06-19T10:02:51.478Z,75.00
2023-06-19T10:05:29.151Z,75.00
2023-06-19T10:08:00.711Z,74.90
2023-06-19T10:10:31.329Z,74.80
2023-06-19T10:13:03.089Z,74.70
2023-06-19T10:15:33.095Z,74.60
2023-06-19T10:18:05.158Z,74.60
2023-06-19T10:20:46.392Z,74.40
2023-06-19T10:23:21.039Z,74.40
2023-06-19T10:25:49.977Z,74.30
2023-06-19T10:28:22.534Z,74.20
2023-06-19T10:30:58.549Z,74.10
2023-06-19T10:33:26.839Z,73.80
2023-06-19T10:35:54.095Z,73.60
2023-06-19T10:38:21.453Z,73.40
2023-06-19T10:40:48.820Z,73.40
2023-06-19T10:43:30.222Z,73.30
2023-06-19T10:45:57.549Z,73.10
2023-06-19T10:48:25.750Z,73.20
2023-06-19T10:50:52.999Z,73.30
2023-06-19T10:53:33.266Z,73.40
2023-06-19T10:56:01.278Z,73.30
2023-06-19T10:58:29.383Z,73.30
2023-06-19T11:00:56.658Z,73.40
2023-06-19T11:03:24.022Z,73.50
2023-06-19T11:05:51.506Z,73.50
2023-06-19T11:08:19.597Z,73.60
2023-06-19T11:10:46.855Z,73.60
2023-06-19T11:13:17.975Z,73.50
2023-06-19T11:15:45.731Z,73.60
2023-06-19T11:18:13.180Z,73.50
2023-06-19T11:20:51.706Z,73.40
2023-06-19T11:23:28.524Z,73.40
2023-06-19T11:25:58.854Z,73.20
2023-06-19T11:28:28.397Z,73.10
2023-06-19T11:31:04.798Z,73.00
2023-06-19T11:33:32.093Z,72.80
2023-06-19T11:36:02.872Z,72.80
2023-06-19T11:38:30.931Z,72.80
2023-06-19T11:40:58.992Z,72.40
2023-06-19T11:43:30.269Z,72.40
2023-06-19T11:46:06.541Z,72.40
2023-06-19T11:48:33.860Z,72.40
2023-06-19T11:51:01.086Z,72.40
2023-06-19T11:53:28.380Z,72.40
2023-06-19T11:55:55.529Z,72.40
2023-06-19T11:58:22.752Z,72.40
2023-06-19T12:00:50.185Z,72.30
2023-06-19T12:03:19.605Z,72.40
2023-06-19T12:05:46.953Z,71.70
2023-06-19T12:08:14.261Z,71.30
2023-06-19T12:10:41.516Z,71.20
2023-06-19T12:13:08.665Z,71.50
2023-06-19T12:15:37.675Z,71.40
2023-06-19T12:18:05.781Z,71.40
2023-06-19T12:20:32.967Z,71.10
2023-06-19T12:23:00.146Z,70.90
2023-06-19T12:25:27.278Z,70.80
2023-06-19T12:27:55.812Z,70.60
2023-06-19T12:30:23.520Z,70.70
2023-06-19T12:32:51.456Z,70.60
2023-06-19T12:35:19.531Z,70.70
2023-06-19T12:37:47.119Z,70.50
2023-06-19T12:40:14.433Z,69.90
2023-06-19T12:42:41.626Z,69.60
2023-06-19T12:45:09.159Z,69.10
2023-06-19T12:47:36.590Z,68.90
2023-06-19T12:50:04.203Z,68.90
2023-06-19T12:52:32.221Z,69.10
2023-06-19T12:55:02.337Z,68.90
2023-06-19T12:57:29.590Z,68.80
2023-06-19T12:59:56.811Z,68.60
2023-06-19T13:02:24.341Z,68.90
2023-06-19T13:04:51.863Z,69.00
2023-06-19T13:07:19.085Z,69.00
2023-06-19T13:09:46.265Z,69.00
2023-06-19T13:12:13.525Z,69.60
2023-06-19T13:14:40.717Z,69.10
2023-06-19T13:17:08.282Z,69.10
2023-06-19T13:19:35.778Z,69.10
2023-06-19T13:22:03.074Z,69.10
2023-06-19T13:24:30.536Z,68.90
2023-06-19T13:26:57.738Z,68.50
2023-06-19T13:29:24.980Z,68.50
2023-06-19T13:31:52.585Z,68.50
2023-06-19T13:34:19.969Z,68.00
2023-06-19T13:36:48.833Z,68.00
2023-06-19T13:39:16.114Z,67.00
2023-06-19T13:41:43.275Z,66.70
2023-06-19T13:44:10.463Z,66.40
2023-06-19T13:46:38.539Z,66.70
2023-06-19T13:49:06.115Z,66.40
2023-06-19T13:51:34.044Z,66.40
2023-06-19T13:54:01.302Z,66.80
2023-06-19T13:56:28.493Z,66.80
2023-06-19T13:58:56.081Z,66.80
2023-06-19T14:01:23.340Z,66.80
2023-06-19T14:03:50.579Z,66.40
2023-06-19T14:06:17.821Z,66.00
2023-06-19T14:08:45.075Z,66.00
2023-06-19T14:11:12.884Z,65.80
2023-06-19T14:13:39.996Z,65.60
2023-06-19T14:16:07.186Z,65.50
2023-06-19T14:18:34.906Z,65.30
2023-06-19T14:21:02.031Z,64.80
2023-06-19T14:23:29.258Z,65.10
2023-06-19T14:25:56.758Z,65.20
2023-06-19T14:28:24.064Z,64.90
2023-06-19T14:30:51.213Z,64.40
2023-06-19T14:33:18.376Z,64.70
2023-06-19T14:35:47.308Z,64.50
2023-06-19T14:38:15.534Z,64.60
2023-06-19T14:40:42.997Z,64.40
2023-06-19T14:43:10.830Z,64.40
2023-06-19T14:45:38.589Z,64.00
2023-06-19T14:48:06.014Z,63.80
2023-06-19T14:50:34.793Z,63.90
2023-06-19T14:53:02.139Z,63.40
2023-06-19T14:55:29.439Z,63.60
2023-06-19T14:57:56.984Z,63.00
2023-06-19T15:00:24.546Z,62.80
2023-06-19T15:02:52.036Z,62.60
2023-06-19T15:05:19.654Z,62.20
2023-06-19T15:07:46.891Z,61.90
2023-06-19T15:10:14.300Z,61.90
2023-06-19T15:12:41.425Z,61.60
2023-06-19T15:15:08.789Z,61.80
2023-06-19T15:17:36.326Z,61.70
2023-06-19T15:20:04.247Z,61.10
2023-06-19T15:22:31.352Z,60.80
2023-06-19T15:24:58.543Z,61.00
2023-06-19T15:27:25.806Z,60.20
2023-06-19T15:29:52.973Z,60.30
2023-06-19T15:32:20.058Z,60.50
2023-06-19T15:34:47.211Z,60.30
2023-06-19T15:37:14.439Z,60.40
2023-06-19T15:39:42.910Z,59.70
2023-06-19T15:42:10.613Z,59.80
2023-06-19T15:44:37.840Z,59.40
2023-06-19T15:47:05.089Z,59.40
2023-06-19T15:49:32.343Z,58.80
2023-06-19T15:51:59.672Z,59.20
2023-06-19T15:54:26.829Z,59.30
2023-06-19T15:56:54.059Z,59.40
2023-06-19T15:59:21.144Z,59.00
2023-06-19T16:01:48.312Z,58.90
2023-06-19T16:04:15.585Z,58.30
2023-06-19T16:06:42.948Z,58.60
2023-06-19T16:09:10.216Z,58.10
2023-06-19T16:11:37.414Z,58.40
2023-06-19T16:14:04.605Z,58.30
2023-06-19T16:16:31.937Z,58.10
2023-06-19T16:18:59.408Z,58.10
2023-06-19T16:21:29.146Z,58.00
2023-06-19T16:23:56.395Z,58.20
2023-06-19T16:26:23.523Z,58.50
2023-06-19T16:28:52.148Z,58.50
2023-06-19T16:31:19.505Z,58.70
2023-06-19T16:33:46.949Z,58.60
2023-06-19T16:36:14.081Z,58.60
2023-06-19T16:38:41.402Z,58.20
2023-06-19T16:41:08.725Z,58.00
2023-06-19T16:43:35.930Z,58.20
2023-06-19T16:46:03.438Z,58.00
2023-06-19T16:48:30.671Z,57.80
2023-06-19T16:50:57.858Z,57.60
2023-06-19T16:53:25.044Z,57.50
2023-06-19T16:55:57.016Z,57.70
2023-06-19T16:58:24.453Z,57.70
2023-06-19T17:00:55.230Z,57.80
2023-06-19T17:03:22.649Z,57.80
2023-06-19T17:05:50.011Z,57.80
2023-06-19T17:08:17.329Z,58.10
2023-06-19T17:10:44.496Z,58.10
2023-06-19T17:13:11.727Z,58.10
2023-06-19T17:15:38.969Z,58.10
2023-06-19T17:18:07.806Z,57.80
2023-06-19T17:20:34.985Z,58.00
2023-06-19T17:23:02.311Z,58.00
2023-06-19T17:25:29.570Z,58.20
2023-06-19T17:27:57.132Z,58.50
2023-06-19T17:30:24.725Z,58.60
2023-06-19T17:32:52.121Z,58.80
2023-06-19T17:35:20.862Z,58.90
2023-06-19T17:37:49.427Z,59.10
2023-06-19T17:40:16.611Z,59.20
2023-06-19T17:42:43.770Z,59.20
2023-06-19T17:45:11.085Z,59.30
2023-06-19T17:47:38.565Z,59.40
2023-06-19T17:50:06.044Z,59.60
2023-06-19T17:52:33.754Z,59.80
2023-06-19T17:55:00.915Z,59.70
2023-06-19T17:57:28.336Z,59.70
2023-06-19T17:59:58.131Z,59.80
2023-06-19T18:02:26.515Z,59.70
2023-06-19T18:04:53.781Z,59.90
2023-06-19T18:07:20.976Z,59.80
2023-06-19T18:09:50.745Z,59.90
2023-06-19T18:12:18.683Z,60.10
2023-06-19T18:14:47.102Z,60.10
2023-06-19T18:17:14.957Z,60.20
2023-06-19T18:19:42.311Z,60.30
2023-06-19T18:22:09.529Z,60.40
2023-06-19T18:24:36.779Z,60.60
2023-06-19T18:27:04.246Z,60.70
2023-06-19T18:29:32.107Z,60.70
2023-06-19T18:31:59.554Z,60.90
2023-06-19T18:34:29.811Z,61.50
2023-06-19T18:36:57.168Z,61.00
2023-06-19T18:39:24.579Z,61.00
2023-06-19T18:41:52.006Z,61.20
2023-06-19T18:44:19.585Z,61.30
2023-06-19T18:46:47.104Z,61.50
2023-06-19T18:49:14.495Z,61.50
2023-06-19T18:51:41.858Z,61.60
2023-06-19T18:54:09.247Z,61.70
2023-06-19T18:56:38.124Z,61.70
2023-06-19T18:59:06.124Z,61.70
2023-06-19T19:01:33.363Z,61.90
2023-06-19T19:04:00.649Z,62.00
2023-06-19T19:06:28.437Z,62.10
2023-06-19T19:08:57.620Z,62.10
2023-06-19T19:11:24.888Z,62.20
2023-06-19T19:13:53.549Z,62.30
2023-06-19T19:16:20.834Z,62.30
2023-06-19T19:18:48.139Z,62.40
2023-06-19T19:21:15.350Z,62.40
2023-06-19T19:23:43.640Z,62.50
2023-06-19T19:26:11.374Z,62.60
2023-06-19T19:28:38.547Z,62.60
2023-06-19T19:31:05.902Z,62.70
2023-06-19T19:33:33.180Z,62.90
2023-06-19T19:36:02.369Z,62.90
2023-06-19T19:38:29.646Z,63.00
2023-06-19T19:40:56.903Z,63.10
2023-06-19T19:43:24.261Z,63.20
2023-06-19T19:45:51.567Z,63.30
2023-06-19T19:48:18.866Z,63.30
2023-06-19T19:50:46.074Z,63.40
2023-06-19T19:53:13.296Z,63.50
2023-06-19T19:55:40.640Z,63.50
2023-06-19T19:58:07.873Z,63.60
2023-06-19T20:00:35.057Z,63.70
2023-06-19T20:03:02.353Z,63.90
2023-06-19T20:05:29.649Z,63.90
2023-06-19T20:07:56.813Z,64.00
2023-06-19T20:10:24.274Z,64.50
2023-06-19T20:12:51.710Z,64.10
2023-06-19T20:15:18.978Z,64.70
2023-06-19T20:17:46.221Z,64.20
2023-06-19T20:20:13.597Z,64.20
2023-06-19T20:22:40.708Z,64.30
2023-06-19T20:25:08.124Z,64.30
2023-06-19T20:27:35.389Z,64.50
2023-06-19T20:30:02.575Z,64.60
2023-06-19T20:32:29.838Z,64.60
2023-06-19T20:34:57.110Z,64.80
2023-06-19T20:37:24.394Z,64.80
2023-06-19T20:39:51.521Z,64.90
2023-06-19T20:42:19.878Z,65.00
2023-06-19T20:44:48.815Z,65.10
2023-06-19T20:47:16.133Z,65.10
2023-06-19T20:49:43.359Z,65.30
2023-06-19T20:52:10.618Z,65.40
2023-06-19T20:54:37.868Z,65.50
2023-06-19T20:57:05.158Z,65.50
2023-06-19T20:59:32.976Z,65.60
2023-06-19T21:02:01.581Z,65.70
2023-06-19T21:04:29.041Z,65.70
2023-06-19T21:06:56.554Z,65.80
2023-06-19T21:09:24.133Z,65.90
2023-06-19T21:11:51.302Z,66.00
2023-06-19T21:14:18.472Z,66.10
2023-06-19T21:16:45.865Z,66.20
2023-06-19T21:19:13.219Z,66.30
2023-06-19T21:21:40.439Z,66.30
2023-06-19T21:24:07.663Z,66.40
2023-06-19T21:26:34.987Z,66.40
2023-06-19T21:29:02.224Z,66.60
2023-06-19T21:31:29.437Z,66.60
2023-06-19T21:33:57.881Z,66.60
2023-06-19T21:36:25.669Z,66.60
2023-06-19T21:38:52.902Z,66.60
2023-06-19T21:41:20.049Z,66.70
2023-06-19T21:43:48.528Z,66.70
2023-06-19T21:46:15.752Z,66.70
2023-06-19T21:48:42.915Z,66.90
2023-06-19T21:51:10.125Z,66.90
2023-06-19T21:53:37.249Z,67.00
2023-06-19T21:56:04.730Z,67.00
2023-06-19T21:58:31.924Z,67.10
2023-06-19T22:00:59.080Z,67.20
2023-06-19T22:03:26.359Z,67.30
2023-06-19T22:05:53.577Z,67.50
2023-06-19T22:08:33.822Z,67.50
2023-06-19T22:11:08.449Z,67.60
2023-06-19T22:13:36.353Z,67.60
2023-06-19T22:16:03.563Z,67.80
2023-06-19T22:18:30.789Z,67.80
2023-06-19T22:20:57.896Z,67.90
2023-06-19T22:23:25.048Z,67.90
2023-06-19T22:25:52.149Z,68.00
2023-06-19T22:28:19.415Z,68.10
2023-06-19T22:30:46.591Z,68.30
2023-06-19T22:33:13.920Z,68.40
2023-06-19T22:35:41.015Z,68.50
2023-06-19T22:38:08.294Z,68.50
2023-06-19T22:40:35.604Z,68.70
2023-06-19T22:43:02.958Z,68.80
2023-06-19T22:45:30.169Z,68.80
2023-06-19T22:47:57.497Z,68.90
2023-06-19T22:50:26.434Z,69.00
2023-06-19T22:52:53.681Z,69.00
2023-06-19T22:55:22.129Z,69.10
2023-06-19T22:57:49.347Z,69.20
2023-06-19T23:00:16.920Z,69.20
2023-06-19T23:02:44.986Z,69.30
2023-06-19T23:05:12.632Z,69.40
2023-06-19T23:07:40.352Z,69.50
2023-06-19T23:10:10.418Z,69.60
2023-06-19T23:12:38.113Z,69.60
2023-06-19T23:15:08.052Z,69.70
2023-06-19T23:17:35.979Z,69.80
2023-06-19T23:20:03.443Z,69.80
2023-06-19T23:22:31.255Z,69.90
2023-06-19T23:25:01.657Z,69.90
2023-06-19T23:27:29.050Z,69.90
2023-06-19T23:29:56.327Z,70.00
2023-06-19T23:32:23.672Z,70.00
2023-06-19T23:34:50.852Z,70.00
2023-06-19T23:37:18.285Z,70.10
2023-06-19T23:39:45.495Z,70.00
2023-06-19T23:42:16.086Z,70.10
2023-06-19T23:44:43.182Z,70.20
2023-06-19T23:47:10.353Z,70.20
2023-06-19T23:49:42.040Z,70.30
2023-06-19T23:52:09.310Z,70.30
2023-06-19T23:54:36.442Z,70.40
2023-06-19T23:57:04.075Z,70.50
2023-06-19T23:59:31.322Z,70.60
